Time;durP1;ratioP1;P1;durP2;ratioP2;P2;SDS_P1;SDS_P2;PMS_P1;PMS_P2;Temp;Humidity;BMP_temperature;BMP_pressure;BME280_temperature;BME280_humidity;BME280_pressure;Samples;Min_cycle;Max_cycle;Signal;HPM_P1;HPM_P2
2023/04/12 00:00:29;;;;;;;1.17;0.43;;;;;;;14.19;37.70;101221.69;4990735;28;20128;-74
2023/04/12 00:03:01;;;;;;;3.42;0.60;;;;;;;13.98;36.37;101224.69;4981696;28;20497;-74
2023/04/12 00:05:33;;;;;;;0.85;0.38;;;;;;;13.97;38.15;101219.44;4984461;28;20054;-74
2023/04/12 00:08:03;;;;;;;0.50;0.30;;;;;;;13.91;37.56;101227.13;4984105;28;20074;-74
2023/04/12 00:10:32;;;;;;;0.85;0.50;;;;;;;13.50;47.02;101225.28;4982385;28;20119;-74
2023/04/12 00:13:01;;;;;;;2.05;0.47;;;;;;;13.24;48.42;101226.28;4986941;28;20054;-75
2023/04/12 00:15:30;;;;;;;1.10;0.57;;;;;;;13.12;49.17;101217.34;4992752;28;20108;-74
2023/04/12 00:17:58;;;;;;;1.35;0.45;;;;;;;12.91;50.55;101225.44;4988548;28;20685;-75
2023/04/12 00:20:27;;;;;;;4.07;0.63;;;;;;;12.71;51.47;101230.09;4989000;28;20066;-75
2023/04/12 00:22:57;;;;;;;2.92;0.60;;;;;;;12.60;52.75;101221.13;4985061;28;20129;-75
2023/04/12 00:25:26;;;;;;;0.60;0.30;;;;;;;12.39;53.41;101220.47;4987801;28;20058;-75
2023/04/12 00:27:55;;;;;;;1.25;0.43;;;;;;;12.20;52.68;101219.06;4988245;28;20089;-74
2023/04/12 00:30:23;;;;;;;0.65;0.32;;;;;;;12.11;59.28;101220.53;4986590;28;20061;-74
2023/04/12 00:32:52;;;;;;;1.95;0.28;;;;;;;12.03;56.70;101210.78;4988217;28;20124;-74
2023/04/12 00:35:21;;;;;;;6.47;0.75;;;;;;;11.98;57.28;101214.91;4982241;28;20054;-74
2023/04/12 00:37:49;;;;;;;1.23;0.63;;;;;;;11.87;56.04;101207.69;4989624;28;20053;-73
2023/04/12 00:40:20;;;;;;;1.27;0.82;;;;;;;11.82;55.61;101206.63;4979452;28;20046;-74
2023/04/12 00:42:48;;;;;;;0.95;0.40;;;;;;;11.92;56.03;101208.72;4986363;28;20050;-75
2023/04/12 00:45:17;;;;;;;1.70;0.50;;;;;;;11.77;54.37;101203.00;4989869;28;20050;-78
2023/04/12 00:47:46;;;;;;;1.17;0.63;;;;;;;11.66;53.77;101191.41;4987942;28;20050;-77
2023/04/12 00:50:22;;;;;;;1.65;0.60;;;;;;;11.70;55.28;101208.81;4985904;28;20046;-74
2023/04/12 00:52:51;;;;;;;0.65;0.43;;;;;;;11.67;55.94;101200.97;4987839;28;20058;-75
2023/04/12 00:55:22;;;;;;;2.03;0.70;;;;;;;11.57;56.17;101193.69;4987423;28;20121;-76
2023/04/12 00:57:51;;;;;;;2.45;0.65;;;;;;;11.57;58.76;101196.28;4981080;28;20060;-74
2023/04/12 01:00:20;;;;;;;1.40;0.60;;;;;;;11.50;57.64;101198.72;4985243;28;20133;-75
2023/04/12 01:02:49;;;;;;;1.52;0.52;;;;;;;11.32;58.39;101180.84;4987046;28;20108;-75
2023/04/12 01:05:22;;;;;;;2.20;0.63;;;;;;;11.36;62.19;101201.66;4986364;28;20050;-74
2023/04/12 01:07:59;;;;;;;1.38;0.63;;;;;;;11.26;62.07;101188.41;4982861;28;20057;-74
2023/04/12 01:10:42;;;;;;;2.22;0.60;;;;;;;11.23;63.47;101192.59;4979351;28;20046;-75
2023/04/12 01:13:19;;;;;;;0.50;0.30;;;;;;;11.25;63.95;101180.59;4983230;28;20674;-73
2023/04/12 01:15:55;;;;;;;4.05;1.00;;;;;;;11.14;66.15;101184.53;4984189;28;20670;-73
2023/04/12 01:18:26;;;;;;;1.85;0.52;;;;;;;11.13;66.31;101182.75;4984338;28;20047;-74
2023/04/12 01:21:01;;;;;;;3.05;0.63;;;;;;;11.11;67.43;101173.22;4974193;28;20113;-74
2023/04/12 01:23:52;;;;;;;0.90;0.55;;;;;;;11.07;66.33;101170.50;4986648;28;20105;-74
2023/04/12 01:26:35;;;;;;;4.10;0.50;;;;;;;11.02;64.87;101162.56;4986344;28;20082;-74
2023/04/12 01:29:11;;;;;;;0.80;0.43;;;;;;;11.04;66.99;101160.00;4976396;28;20051;-74
2023/04/12 01:31:44;;;;;;;3.50;0.60;;;;;;;11.00;66.22;101159.03;4989547;28;20054;-75
2023/04/12 01:34:14;;;;;;;1.45;0.70;;;;;;;10.93;64.29;101157.06;4985265;28;20053;-74
2023/04/12 01:36:45;;;;;;;0.40;0.32;;;;;;;10.94;67.02;101151.03;4986157;28;20065;-75
2023/04/12 01:39:13;;;;;;;1.63;0.57;;;;;;;10.89;67.10;101147.44;4983778;28;20046;-76
2023/04/12 01:41:44;;;;;;;1.38;0.80;;;;;;;10.87;66.24;101149.09;4985979;28;20145;-76
2023/04/12 01:44:16;;;;;;;2.05;0.57;;;;;;;10.83;67.81;101153.25;4986238;28;20085;-73
2023/04/12 01:46:46;;;;;;;1.85;0.52;;;;;;;10.81;67.62;101154.94;4991801;28;20073;-74
2023/04/12 01:49:16;;;;;;;2.50;0.85;;;;;;;10.80;68.52;101160.06;4984114;28;20050;-77
2023/04/12 01:51:51;;;;;;;1.15;0.70;;;;;;;10.78;68.87;101159.13;4985818;28;20046;-75
2023/04/12 01:54:23;;;;;;;1.13;0.52;;;;;;;10.79;68.53;101155.69;4979304;28;20065;-75
2023/04/12 01:56:58;;;;;;;1.00;0.40;;;;;;;10.82;71.96;101148.06;4985361;28;20054;-76
2023/04/12 01:59:33;;;;;;;2.22;0.57;;;;;;;10.80;68.58;101144.53;4980299;28;20055;-74
2023/04/12 02:02:02;;;;;;;1.23;0.60;;;;;;;10.79;66.00;101153.09;4979195;28;20055;-75
2023/04/12 02:04:32;;;;;;;1.08;0.40;;;;;;;10.81;68.47;101146.28;4982465;28;20061;-75
2023/04/12 02:07:01;;;;;;;1.42;0.73;;;;;;;10.71;65.33;101142.50;4987684;28;20571;-74
2023/04/12 02:09:30;;;;;;;1.17;0.40;;;;;;;10.76;68.01;101147.81;4990362;28;20046;-75
2023/04/12 02:11:58;;;;;;;2.75;0.55;;;;;;;10.72;68.34;101144.28;4986421;28;20043;-74
2023/04/12 02:14:30;;;;;;;1.95;0.63;;;;;;;10.65;70.17;101134.50;4991115;28;20062;-73
2023/04/12 02:17:01;;;;;;;0.82;0.50;;;;;;;10.57;68.96;101129.06;4988218;28;20051;-74
2023/04/12 02:19:29;;;;;;;5.45;0.68;;;;;;;10.57;71.09;101136.81;4989188;28;20093;-75
2023/04/12 02:21:58;;;;;;;1.45;0.63;;;;;;;10.50;71.42;101123.63;4985823;28;20054;-73
2023/04/12 02:24:26;;;;;;;0.52;0.40;;;;;;;10.44;71.07;101129.44;4984143;28;20043;-73
2023/04/12 02:27:00;;;;;;;0.93;0.52;;;;;;;10.41;71.88;101130.22;4988966;28;20045;-73
2023/04/12 02:29:30;;;;;;;1.52;0.65;;;;;;;10.29;70.28;101114.28;4983738;28;20050;-75
2023/04/12 02:31:59;;;;;;;0.47;0.30;;;;;;;10.24;70.69;101115.78;4988050;28;20713;-73
2023/04/12 02:34:33;;;;;;;2.65;0.40;;;;;;;10.25;70.34;101118.41;4984460;28;20928;-73
2023/04/12 02:37:02;;;;;;;0.93;0.50;;;;;;;10.16;70.11;101112.91;4992772;28;20078;-74
2023/04/12 02:39:33;;;;;;;1.17;0.30;;;;;;;9.95;70.16;101109.53;4991782;28;20109;-72
2023/04/12 02:42:06;;;;;;;0.38;0.22;;;;;;;9.86;67.04;101115.22;4991650;28;20053;-73
2023/04/12 02:44:36;;;;;;;1.60;0.60;;;;;;;9.85;69.09;101106.59;4988666;28;20058;-75
2023/04/12 02:47:06;;;;;;;1.88;0.73;;;;;;;9.85;69.65;101121.22;4996567;28;20053;-73
2023/04/12 02:49:35;;;;;;;2.30;1.10;;;;;;;9.84;70.55;101114.28;4990390;28;20042;-76
2023/04/12 02:52:03;;;;;;;1.38;0.75;;;;;;;9.71;71.43;101106.88;4987033;28;20046;-76
2023/04/12 02:54:32;;;;;;;2.17;0.77;;;;;;;9.65;71.70;101116.16;4998596;28;20058;-75
2023/04/12 02:57:01;;;;;;;4.18;0.90;;;;;;;9.68;71.09;101117.09;4990006;28;20054;-77
2023/04/12 02:59:29;;;;;;;3.85;1.45;;;;;;;9.75;71.48;101119.09;4986867;28;20120;-75
2023/04/12 03:02:00;;;;;;;1.58;0.98;;;;;;;9.79;70.09;101121.84;4986248;28;20050;-77
2023/04/12 03:04:29;;;;;;;3.80;0.88;;;;;;;9.76;69.40;101111.41;4997257;28;20046;-76
2023/04/12 03:06:57;;;;;;;1.33;0.70;;;;;;;9.76;67.71;101115.72;4990747;28;20046;-76
2023/04/12 03:09:26;;;;;;;0.63;0.50;;;;;;;9.79;68.51;101124.44;4986636;28;20043;-75
2023/04/12 03:11:55;;;;;;;0.95;0.65;;;;;;;9.81;68.59;101117.63;4990057;28;20081;-77
2023/04/12 03:14:24;;;;;;;1.48;0.68;;;;;;;9.86;69.18;101126.44;4987919;28;20070;-75
2023/04/12 03:16:52;;;;;;;1.33;0.60;;;;;;;9.87;68.06;101124.72;4988081;28;20050;-75
2023/04/12 03:19:23;;;;;;;0.73;0.55;;;;;;;9.90;64.30;101113.66;4985814;28;20053;-76
2023/04/12 03:21:51;;;;;;;0.45;0.38;;;;;;;9.90;64.12;101123.97;4986768;28;20050;-77
2023/04/12 03:24:20;;;;;;;1.05;0.47;;;;;;;9.84;62.73;101120.31;4982350;28;20050;-75
2023/04/12 03:26:49;;;;;;;0.77;0.50;;;;;;;9.90;60.59;101129.16;4986817;28;20049;-76
2023/04/12 03:29:17;;;;;;;1.65;0.60;;;;;;;9.84;54.49;101114.28;4986275;28;20515;-77
2023/04/12 03:31:46;;;;;;;3.00;0.40;;;;;;;9.79;52.28;101108.94;4985671;28;20464;-75
2023/04/12 03:34:15;;;;;;;1.13;0.50;;;;;;;9.80;53.38;101112.38;4989074;28;20226;-76
2023/04/12 03:36:45;;;;;;;0.88;0.40;;;;;;;9.78;52.70;101125.28;4991295;28;20039;-76
2023/04/12 03:39:14;;;;;;;1.05;0.50;;;;;;;9.76;52.35;101126.91;4992383;28;20059;-77
2023/04/12 03:41:43;;;;;;;0.75;0.50;;;;;;;9.75;52.42;101135.47;4989249;28;20309;-74
2023/04/12 03:44:11;;;;;;;3.13;0.50;;;;;;;9.71;51.51;101131.03;4989355;28;20498;-74
2023/04/12 03:46:40;;;;;;;0.77;0.50;;;;;;;9.71;51.73;101133.63;4989016;28;20551;-75
2023/04/12 03:49:08;;;;;;;3.05;0.85;;;;;;;9.69;52.08;101130.09;4987648;28;20129;-75
2023/04/12 03:51:41;;;;;;;0.40;0.35;;;;;;;9.69;50.78;101140.44;4984392;28;20048;-75
2023/04/12 03:54:11;;;;;;;;;;;;;;;9.67;50.50;101139.47;4982049;28;20059;-74
2023/04/12 03:56:40;;;;;;;5.45;0.80;;;;;;;9.65;49.27;101146.28;4982596;28;19979;-73
2023/04/12 03:59:09;;;;;;;2.75;0.40;;;;;;;9.61;49.28;101141.81;4984355;28;20061;-73
2023/04/12 04:01:38;;;;;;;2.65;0.85;;;;;;;9.58;49.96;101146.88;4981121;28;20057;-74
2023/04/12 04:04:07;;;;;;;5.22;0.43;;;;;;;9.51;49.66;101160.38;4980749;28;20531;-75
2023/04/12 04:06:35;;;;;;;2.45;0.55;;;;;;;9.46;50.46;101165.34;4987275;28;20054;-74
2023/04/12 04:09:04;;;;;;;3.97;0.60;;;;;;;9.46;50.71;101156.69;4990816;28;20053;-74
2023/04/12 04:11:34;;;;;;;1.70;0.50;;;;;;;9.44;49.94;101162.69;4989170;28;20055;-74
2023/04/12 04:14:03;;;;;;;1.13;0.55;;;;;;;9.37;50.28;101158.09;4989673;28;20057;-75
2023/04/12 04:16:32;;;;;;;2.15;0.60;;;;;;;9.37;50.72;101158.09;4988194;28;20061;-74
2023/04/12 04:19:00;;;;;;;3.63;0.88;;;;;;;9.36;51.87;101155.44;4985224;28;20638;-75
2023/04/12 04:21:31;;;;;;;0.28;0.20;;;;;;;9.39;52.23;101158.13;4985319;28;20069;-75
2023/04/12 04:24:01;;;;;;;1.45;0.70;;;;;;;9.39;51.57;101156.47;4987860;28;20144;-74
2023/04/12 04:26:32;;;;;;;3.03;0.30;;;;;;;9.42;51.11;101163.44;4989696;28;20058;-75
2023/04/12 04:29:03;;;;;;;0.30;0.30;;;;;;;9.39;51.68;101156.47;4987091;28;20047;-75
2023/04/12 04:31:35;;;;;;;2.55;0.75;;;;;;;9.42;51.09;101161.75;4980273;28;20156;-76
2023/04/12 04:34:04;;;;;;;1.15;0.50;;;;;;;9.36;51.82;101165.78;4987737;28;20062;-75
2023/04/12 04:36:35;;;;;;;3.92;0.73;;;;;;;9.33;51.83;101161.38;4984222;28;20055;-76
2023/04/12 04:39:04;;;;;;;1.80;0.65;;;;;;;9.30;52.88;101161.25;4990807;28;20046;-77
2023/04/12 04:41:38;;;;;;;1.25;0.40;;;;;;;9.24;54.68;101158.41;4989554;28;20118;-77
2023/04/12 04:44:09;;;;;;;1.40;0.60;;;;;;;9.18;54.76;101168.47;4989289;28;20046;-82
2023/04/12 04:46:38;;;;;;;1.98;0.75;;;;;;;9.15;58.41;101166.66;4988892;28;20050;-83
2023/04/12 04:49:08;;;;;;;2.72;0.73;;;;;;;9.15;59.56;101164.06;4982853;28;20137;-77
2023/04/12 04:51:37;;;;;;;0.85;0.57;;;;;;;9.13;62.13;101167.41;4990686;28;20114;-80
2023/04/12 04:54:06;;;;;;;0.63;0.55;;;;;;;9.17;62.71;101169.31;4986452;28;20046;-80
2023/04/12 04:56:34;;;;;;;1.48;0.65;;;;;;;9.14;56.93;101164.00;4991542;28;20061;-76
2023/04/12 04:59:03;;;;;;;4.40;1.25;;;;;;;9.07;59.94;101156.81;4985819;28;20046;-76
2023/04/12 05:01:34;;;;;;;2.17;0.60;;;;;;;9.07;62.78;101157.72;4987500;28;20043;-77
2023/04/12 05:04:03;;;;;;;0.90;0.38;;;;;;;9.06;65.15;101155.94;4984634;28;20044;-79
2023/04/12 05:06:32;;;;;;;2.78;0.88;;;;;;;9.06;61.29;101149.91;4982463;28;20635;-78
2023/04/12 05:09:00;;;;;;;2.03;0.60;;;;;;;9.12;60.62;101160.50;4990222;28;20408;-79
2023/04/12 05:11:29;;;;;;;1.60;0.50;;;;;;;9.16;62.55;101149.44;4979636;28;20078;-77
2023/04/12 05:13:58;;;;;;;2.33;0.43;;;;;;;9.18;63.90;101145.22;4981880;28;20089;-77
2023/04/12 05:16:26;;;;;;;0.57;0.43;;;;;;;9.19;69.88;101141.84;4986647;28;20057;-78
2023/04/12 05:19:03;;;;;;;0.93;0.47;;;;;;;9.16;69.07;101133.97;4986469;28;20038;-76
2023/04/12 05:21:33;;;;;;;1.92;0.50;;;;;;;9.14;68.10;101127.84;4980656;28;20104;-75
2023/04/12 05:24:02;;;;;;;1.33;0.50;;;;;;;9.11;64.85;101118.28;4984308;28;20053;-74
2023/04/12 05:26:31;;;;;;;1.88;1.05;;;;;;;9.09;63.50;101125.06;4981884;28;20046;-75
2023/04/12 05:29:00;;;;;;;0.50;0.40;;;;;;;9.01;62.59;101111.00;4983567;28;20046;-76
2023/04/12 05:31:29;;;;;;;2.63;1.00;;;;;;;9.10;64.96;101128.56;4979790;28;20101;-76
2023/04/12 05:33:59;;;;;;;0.80;0.43;;;;;;;9.10;63.97;101123.41;4976102;28;20383;-76
2023/04/12 05:36:28;;;;;;;1.08;0.65;;;;;;;9.07;66.31;101115.50;4990617;28;20053;-76
2023/04/12 05:38:56;;;;;;;0.60;0.20;;;;;;;9.02;67.89;101113.66;4987877;28;20069;-75
2023/04/12 05:41:25;;;;;;;2.85;0.85;;;;;;;9.01;67.27;101127.34;4987997;28;20061;-75
2023/04/12 05:43:53;;;;;;;1.70;0.63;;;;;;;8.98;65.21;101122.06;4977405;28;20050;-74
2023/04/12 05:46:22;;;;;;;2.30;0.38;;;;;;;8.83;63.25;101121.41;4986392;28;20060;-74
2023/04/12 05:48:50;;;;;;;1.60;0.70;;;;;;;8.71;62.35;101128.66;4988099;28;20058;-73
2023/04/12 05:51:20;;;;;;;0.60;0.35;;;;;;;8.63;63.41;101127.41;4984162;28;20046;-74
2023/04/12 05:53:49;;;;;;;0.85;0.40;;;;;;;8.57;66.03;101128.94;4979853;28;20053;-74
2023/04/12 05:56:18;;;;;;;1.20;0.50;;;;;;;8.54;70.74;101123.66;4987660;28;20602;-74
2023/04/12 05:58:47;;;;;;;2.30;0.65;;;;;;;8.60;70.03;101121.31;4986140;28;20054;-77
2023/04/12 06:01:18;;;;;;;1.90;0.88;;;;;;;8.63;67.41;101128.28;4985717;28;20057;-75
2023/04/12 06:03:47;;;;;;;1.67;0.63;;;;;;;8.65;73.03;101116.34;4987818;28;20053;-75
2023/04/12 06:06:16;;;;;;;1.40;0.70;;;;;;;8.68;80.70;101116.50;4984499;28;20513;-75
2023/04/12 06:08:46;;;;;;;0.98;0.50;;;;;;;8.66;78.15;101112.97;4986514;28;20436;-75
2023/04/12 06:11:15;;;;;;;1.38;0.70;;;;;;;8.64;74.38;101103.41;4985698;28;20042;-76
2023/04/12 06:13:43;;;;;;;2.60;0.65;;;;;;;8.62;75.73;101098.16;4982806;28;20645;-76
2023/04/12 06:16:12;;;;;;;5.70;1.17;;;;;;;8.60;76.42;101087.78;4988129;28;20498;-75
2023/04/12 06:18:41;;;;;;;2.63;0.90;;;;;;;8.64;79.68;101083.66;4983009;28;20081;-75
2023/04/12 06:21:09;;;;;;;2.88;0.60;;;;;;;8.60;77.11;101079.16;4983647;28;20130;-76
2023/04/12 06:23:38;;;;;;;3.15;0.85;;;;;;;8.62;77.60;101074.09;4986024;28;20059;-75
2023/04/12 06:26:09;;;;;;;1.88;0.50;;;;;;;8.53;81.73;101070.28;4979738;28;20062;-75
2023/04/12 06:28:37;;;;;;;2.10;0.85;;;;;;;8.53;83.16;101067.69;4982992;28;20046;-73
2023/04/12 06:31:06;;;;;;;2.65;1.20;;;;;;;8.47;77.15;101069.13;4988379;28;20511;-75
2023/04/12 06:33:35;;;;;;;1.20;0.85;;;;;;;8.45;77.14;101058.75;4978512;28;20062;-75
2023/04/12 06:36:04;;;;;;;1.95;0.50;;;;;;;8.44;74.95;101057.00;4991057;28;20099;-75
2023/04/12 06:38:32;;;;;;;0.85;0.57;;;;;;;8.44;75.93;101062.16;4987686;28;20350;-75
2023/04/12 06:41:01;;;;;;;1.83;0.85;;;;;;;8.46;78.56;101067.38;4982046;28;20518;-74
2023/04/12 06:43:31;;;;;;;2.67;0.63;;;;;;;8.42;77.00;101053.47;4987949;28;20707;-74
2023/04/12 06:46:01;;;;;;;2.50;0.63;;;;;;;8.36;77.76;101050.59;4980141;28;20183;-76
2023/04/12 06:48:30;;;;;;;1.27;0.47;;;;;;;8.34;75.91;101050.53;4979601;28;20129;-75
2023/04/12 06:50:59;;;;;;;0.55;0.40;;;;;;;8.32;75.12;101043.56;4987188;28;20410;-74
2023/04/12 06:53:28;;;;;;;1.50;0.60;;;;;;;8.28;72.93;101041.66;4985184;28;20054;-74
2023/04/12 06:55:57;;;;;;;2.65;0.80;;;;;;;8.30;74.71;101045.19;4984903;28;20172;-75
2023/04/12 06:58:26;;;;;;;0.75;0.43;;;;;;;8.28;74.70;101026.19;4993133;28;20042;-75
2023/04/12 07:01:04;;;;;;;2.65;0.77;;;;;;;8.28;71.81;101034.78;4991015;28;20054;-74
2023/04/12 07:03:33;;;;;;;1.15;0.50;;;;;;;8.27;70.83;101029.56;4986575;28;20053;-75
2023/04/12 07:06:01;;;;;;;5.88;0.47;;;;;;;8.24;69.42;101032.88;4991263;28;20097;-75
2023/04/12 07:08:30;;;;;;;2.83;0.50;;;;;;;8.20;69.26;101018.13;4986646;28;20574;-75
2023/04/12 07:10:59;;;;;;;3.50;0.60;;;;;;;8.22;69.11;101023.34;4995270;28;20038;-74
2023/04/12 07:13:27;;;;;;;1.30;0.45;;;;;;;8.18;70.27;101036.09;4991482;28;20124;-74
2023/04/12 07:15:59;;;;;;;3.92;0.50;;;;;;;8.11;69.26;101012.59;4984842;28;20046;-74
2023/04/12 07:18:28;;;;;;;3.30;0.50;;;;;;;8.11;68.86;101021.19;4989390;28;20114;-74
2023/04/12 07:20:57;;;;;;;1.20;0.60;;;;;;;8.11;69.35;101013.47;4986635;28;20516;-73
2023/04/12 07:23:26;;;;;;;1.55;0.40;;;;;;;8.07;70.00;101008.97;4987929;28;20142;-73
2023/04/12 07:25:59;;;;;;;0.20;0.20;;;;;;;8.05;72.26;101010.59;4987233;28;20054;-74
2023/04/12 07:28:28;;;;;;;2.58;0.80;;;;;;;7.98;71.39;101012.03;4979231;28;20603;-73
2023/04/12 07:30:58;;;;;;;8.30;0.60;;;;;;;7.98;69.38;101006.00;4988801;28;20695;-75
2023/04/12 07:33:27;;;;;;;3.10;0.50;;;;;;;7.99;70.53;100997.44;4992074;28;20335;-74
2023/04/12 07:35:56;;;;;;;1.17;0.60;;;;;;;8.00;70.93;100998.34;4989413;28;20599;-73
2023/04/12 07:38:25;;;;;;;0.65;0.40;;;;;;;7.98;71.90;100985.38;4986135;28;20056;-74
2023/04/12 07:40:55;;;;;;;2.45;0.55;;;;;;;8.00;71.96;100994.06;4989525;28;20057;-75
2023/04/12 07:43:24;;;;;;;1.80;0.60;;;;;;;7.95;70.46;100980.09;4986263;28;20051;-74
2023/04/12 07:45:52;;;;;;;0.80;0.43;;;;;;;7.99;71.33;100987.13;4987687;28;20643;-74
2023/04/12 07:48:23;;;;;;;2.10;0.52;;;;;;;7.97;71.58;100968.13;4988859;28;20050;-73
2023/04/12 07:50:51;;;;;;;2.17;0.57;;;;;;;7.94;72.44;100968.91;4989342;28;20049;-73
2023/04/12 07:53:22;;;;;;;1.15;0.50;;;;;;;7.91;73.24;100966.19;4992472;28;20085;-74
2023/04/12 07:55:51;;;;;;;1.52;0.50;;;;;;;7.90;73.24;100968.69;4985321;28;20064;-74
2023/04/12 07:58:20;;;;;;;1.85;0.70;;;;;;;7.90;72.23;100968.69;4989745;28;20050;-73
2023/04/12 08:00:49;;;;;;;1.98;0.63;;;;;;;7.84;72.62;100955.56;4986703;28;20046;-74
2023/04/12 08:03:19;;;;;;;0.95;0.60;;;;;;;7.83;74.05;100954.66;4981528;28;20058;-73
2023/04/12 08:05:52;;;;;;;1.63;0.68;;;;;;;7.74;78.57;100938.81;4987188;28;20049;-76
2023/04/12 08:08:20;;;;;;;;;;;;;;;7.74;78.15;100952.59;4980765;28;20155;-74
2023/04/12 08:10:50;;;;;;;1.98;0.43;;;;;;;7.71;77.40;100949.84;4984774;28;20016;-75
2023/04/12 08:13:18;;;;;;;2.03;0.95;;;;;;;7.69;78.32;100937.72;4990833;28;20046;-74
2023/04/12 08:15:47;;;;;;;1.17;0.43;;;;;;;7.63;75.20;100946.09;4985725;28;20053;-75
2023/04/12 08:18:16;;;;;;;1.95;0.93;;;;;;;7.50;76.43;100933.47;4989987;28;20054;-75
2023/04/12 08:20:46;;;;;;;4.28;0.70;;;;;;;7.46;76.93;100939.28;4986682;28;20064;-74
2023/04/12 08:23:16;;;;;;;1.27;0.75;;;;;;;7.50;77.17;100948.91;4984747;28;20050;-74
2023/04/12 08:25:45;;;;;;;1.10;0.45;;;;;;;7.37;74.91;100951.75;4987645;28;20056;-74
2023/04/12 08:28:13;;;;;;;1.60;0.45;;;;;;;7.33;72.92;100948.16;4990002;28;20161;-73
2023/04/12 08:30:43;;;;;;;2.10;0.65;;;;;;;7.29;74.79;100943.69;4989023;28;20054;-75
2023/04/12 08:33:12;;;;;;;3.50;0.90;;;;;;;7.21;71.03;100935.59;4984792;28;20083;-73
2023/04/12 08:35:40;;;;;;;0.30;0.22;;;;;;;7.13;66.92;100926.66;4989377;28;20057;-73
2023/04/12 08:38:09;;;;;;;1.85;0.68;;;;;;;7.10;66.02;100918.78;4988636;28;20049;-74
2023/04/12 08:40:42;;;;;;;1.80;0.57;;;;;;;6.99;70.37;100917.44;4982022;28;20085;-75
2023/04/12 08:43:13;;;;;;;2.22;0.60;;;;;;;7.04;70.43;100915.94;4988524;28;20054;-76
2023/04/12 08:45:41;;;;;;;1.00;0.68;;;;;;;7.06;72.47;100922.03;4986574;28;20049;-74
2023/04/12 08:48:10;;;;;;;1.13;0.60;;;;;;;6.98;72.89;100915.66;4987637;28;20042;-74
2023/04/12 08:50:39;;;;;;;2.03;0.32;;;;;;;6.93;71.76;100907.72;4982189;28;20057;-75
2023/04/12 08:53:12;;;;;;;3.92;0.70;;;;;;;6.87;74.34;100913.47;4991128;28;20046;-73
2023/04/12 08:55:44;;;;;;;4.43;0.90;;;;;;;6.68;77.96;100921.09;4993018;28;20583;-77
2023/04/12 08:58:20;;;;;;;;;;;;;;;6.65;81.43;100900.41;4988204;28;20052;-74
2023/04/12 09:00:49;;;;;;;5.25;0.43;;;;;;;6.63;83.80;100891.72;4986118;28;19949;-74
2023/04/12 09:03:18;;;;;;;2.17;0.43;;;;;;;6.53;83.88;100879.22;4988823;28;20050;-74
2023/04/12 09:05:46;;;;;;;2.05;0.47;;;;;;;6.54;83.77;100881.00;4982966;28;20046;-74
2023/04/12 09:08:16;;;;;;;0.73;0.60;;;;;;;6.50;82.83;100873.16;4983854;28;20436;-75
2023/04/12 09:10:46;;;;;;;6.80;0.65;;;;;;;6.50;88.49;100860.31;4990561;28;20783;-75
2023/04/12 09:13:15;;;;;;;1.17;0.50;;;;;;;6.48;89.47;100867.06;4986969;28;20050;-75
2023/04/12 09:15:50;;;;;;;0.43;0.30;;;;;;;6.47;88.22;100847.28;4979199;28;20061;-75
2023/04/12 09:18:20;;;;;;;0.20;0.20;;;;;;;6.50;89.08;100843.97;4984222;28;20042;-74
2023/04/12 09:20:48;;;;;;;4.13;0.40;;;;;;;6.47;88.51;100837.00;4985523;28;20105;-75
2023/04/12 09:23:21;;;;;;;0.95;0.35;;;;;;;6.48;88.52;100827.59;4987324;28;20061;-74
2023/04/12 09:25:52;;;;;;;1.02;0.30;;;;;;;6.46;89.79;100827.56;4985544;28;20046;-74
2023/04/12 09:28:22;;;;;;;3.40;1.23;;;;;;;6.45;89.54;100819.75;4988468;28;20065;-74
2023/04/12 09:30:52;;;;;;;0.93;0.50;;;;;;;6.47;89.91;100819.00;4985981;28;20042;-74
2023/04/12 09:33:21;;;;;;;0.30;0.30;;;;;;;6.45;90.40;100819.75;4982727;28;20050;-75
2023/04/12 09:35:50;;;;;;;1.20;0.60;;;;;;;6.40;90.44;100816.97;4986635;28;20057;-75
2023/04/12 09:38:19;;;;;;;1.00;0.43;;;;;;;6.32;90.80;100826.00;4985380;28;20165;-74
2023/04/12 09:40:48;;;;;;;1.00;0.47;;;;;;;6.17;93.15;100823.59;4985268;28;20377;-73
2023/04/12 09:43:19;;;;;;;0.45;0.38;;;;;;;6.03;97.33;100810.06;4989334;28;20130;-73
2023/04/12 09:46:11;;;;;;;1.00;0.30;;;;;;;5.92;97.67;100795.78;4987547;28;20057;-72
2023/04/12 09:48:40;;;;;;;0.20;0.20;;;;;;;5.90;98.68;100807.69;4985380;28;20097;-76
2023/04/12 09:51:27;;;;;;;0.90;0.43;;;;;;;5.86;100.00;100800.63;4988586;28;20047;-75
2023/04/12 09:53:58;;;;;;;1.02;0.50;;;;;;;5.74;100.00;100800.91;4983515;28;20096;-74
2023/04/12 09:56:38;;;;;;;0.17;0.10;;;;;;;5.69;100.00;100791.22;4990053;28;20049;-74
2023/04/12 09:59:16;;;;;;;0.75;0.75;;;;;;;5.60;100.00;100782.25;4981346;28;20598;-75
2023/04/12 10:01:45;;;;;;;1.08;0.50;;;;;;;5.54;100.00;100779.34;4983113;28;20589;-74
2023/04/12 10:04:14;;;;;;;0.70;0.40;;;;;;;5.55;100.00;100773.44;4984036;28;20047;-75
2023/04/12 10:06:43;;;;;;;0.17;0.17;;;;;;;5.53;100.00;100779.31;4983755;28;20054;-74
2023/04/12 10:09:13;;;;;;;0.47;0.30;;;;;;;5.52;100.00;100774.97;4990510;28;20061;-74
2023/04/12 10:11:42;;;;;;;1.08;0.52;;;;;;;5.51;100.00;100758.69;4988264;28;20043;-73
2023/04/12 10:14:12;;;;;;;1.90;0.40;;;;;;;5.48;100.00;100776.50;4986730;28;20066;-73
2023/04/12 10:16:44;;;;;;;0.30;0.30;;;;;;;5.32;100.00;100795.38;4986014;28;21234;-76
2023/04/12 10:19:15;;;;;;;0.40;0.30;;;;;;;5.06;100.00;100795.69;4982502;28;20050;-74
2023/04/12 10:21:43;;;;;;;0.00;0.00;;;;;;;4.90;100.00;100800.06;4986896;28;20105;-74
2023/04/12 10:24:12;;;;;;;3.55;0.35;;;;;;;4.81;100.00;100807.22;4994967;28;20042;-73
2023/04/12 10:26:44;;;;;;;0.30;0.10;;;;;;;4.70;100.00;100811.78;4984114;28;20076;-73
2023/04/12 10:29:29;;;;;;;0.10;0.10;;;;;;;4.60;100.00;100809.50;4990948;28;20081;-73
2023/04/12 10:32:18;;;;;;;0.10;0.10;;;;;;;4.55;100.00;100823.78;4985445;28;20051;-74
2023/04/12 10:34:52;;;;;;;0.30;0.30;;;;;;;4.40;100.00;100826.38;4998912;28;20042;-73
2023/04/12 10:37:21;;;;;;;0.52;0.20;;;;;;;4.33;100.00;100849.88;4992223;28;20050;-73
2023/04/12 10:39:54;;;;;;;0.00;0.00;;;;;;;4.23;98.81;100858.72;4985073;28;20054;-73
2023/04/12 10:42:25;;;;;;;0.08;0.00;;;;;;;4.13;97.87;100866.69;4991357;28;20084;-74
2023/04/12 10:44:55;;;;;;;0.13;0.00;;;;;;;3.96;97.31;100865.72;4989375;28;20586;-72
2023/04/12 10:48:02;;;;;;;0.03;0.00;;;;;;;3.80;97.34;100871.63;4985885;28;20047;-73
2023/04/12 10:50:34;;;;;;;0.17;0.10;;;;;;;3.56;97.84;100889.84;4989810;28;20050;-72
2023/04/12 10:53:25;;;;;;;0.10;0.10;;;;;;;3.39;98.65;100907.53;4982883;28;20050;-72
2023/04/12 10:55:54;;;;;;;0.22;0.13;;;;;;;3.28;100.00;100914.56;4987043;28;20069;-73
2023/04/12 10:58:56;;;;;;;0.05;0.05;;;;;;;3.19;100.00;100926.78;4979202;28;20059;-73
2023/04/12 11:01:24;;;;;;;0.40;0.15;;;;;;;3.06;100.00;100937.91;4937160;28;20134;-72
2023/04/12 11:04:14;;;;;;;0.20;0.20;;;;;;;3.00;100.00;100952.88;4982697;28;20054;-72
2023/04/12 11:07:00;;;;;;;0.13;0.10;;;;;;;2.99;100.00;100959.66;4989152;28;20043;-73
2023/04/12 11:09:30;;;;;;;0.22;0.20;;;;;;;2.99;100.00;100971.56;4983431;28;20073;-73
2023/04/12 11:12:11;;;;;;;2.17;0.20;;;;;;;3.01;100.00;100972.53;4992423;28;20042;-74
2023/04/12 11:14:44;;;;;;;1.95;0.20;;;;;;;3.05;100.00;100987.28;4981872;28;20078;-74
2023/04/12 11:17:26;;;;;;;0.00;0.00;;;;;;;3.07;100.00;100989.16;4987583;28;20668;-74
2023/04/12 11:19:58;;;;;;;0.17;0.08;;;;;;;3.10;100.00;100985.91;4984393;28;20050;-74
2023/04/12 11:22:29;;;;;;;0.10;0.10;;;;;;;3.17;100.00;100987.19;4980197;28;20565;-74
2023/04/12 11:24:59;;;;;;;0.00;0.00;;;;;;;3.22;100.00;100996.00;4989703;28;20643;-74
2023/04/12 11:27:28;;;;;;;0.05;0.05;;;;;;;3.29;100.00;100998.16;4987585;28;20083;-74
2023/04/12 11:29:58;;;;;;;0.00;0.00;;;;;;;3.33;100.00;101002.69;4984132;28;20073;-74
2023/04/12 11:32:28;;;;;;;0.00;0.00;;;;;;;3.28;100.00;100992.16;4987416;28;20122;-73
2023/04/12 11:34:59;;;;;;;0.00;0.00;;;;;;;3.39;100.00;101004.72;4979542;28;20045;-73
2023/04/12 11:37:28;;;;;;;0.30;0.03;;;;;;;3.42;100.00;101008.38;4979304;28;20061;-73
2023/04/12 11:39:58;;;;;;;0.00;0.00;;;;;;;3.40;100.00;101009.06;4977298;28;20054;-72
2023/04/12 11:42:29;;;;;;;0.00;0.00;;;;;;;3.41;100.00;101009.16;4978671;28;20057;-74
2023/04/12 11:44:58;;;;;;;0.10;0.10;;;;;;;3.44;100.00;101009.34;4992030;28;20511;-74
2023/04/12 11:47:27;;;;;;;0.00;0.00;;;;;;;3.45;100.00;101010.25;4991813;28;20137;-73